createdAt,value
2018-06-18T00:02:07.294Z,56.3
2018-06-18T00:07:04.959Z,56.4
2018-06-18T00:12:04.551Z,56.4
2018-06-18T00:17:05.372Z,56.5
2018-06-18T00:22:04.987Z,56.5
2018-06-18T00:27:04.836Z,56.5
2018-06-18T00:32:04.770Z,56.5
2018-06-18T00:37:05.077Z,56.4
2018-06-18T00:42:04.800Z,56.6
2018-06-18T00:47:05.011Z,56.6
2018-06-18T00:52:04.508Z,56.7
2018-06-18T00:57:05.203Z,56.7
2018-06-18T01:02:04.553Z,56.7
2018-06-18T01:07:04.238Z,56.7
2018-06-18T01:12:05.010Z,56.7
2018-06-18T01:17:04.916Z,56.5
2018-06-18T01:22:04.818Z,56.5
2018-06-18T01:27:04.818Z,56.4
2018-06-18T01:32:04.729Z,56.3
2018-06-18T01:37:04.528Z,56.4
2018-06-18T01:42:04.479Z,56.4
2018-06-18T01:47:04.723Z,56.4
2018-06-18T01:52:04.483Z,56.4
2018-06-18T01:57:04.189Z,56.3
2018-06-18T02:02:05.194Z,56.5
2018-06-18T02:07:04.611Z,56.4
2018-06-18T02:12:04.726Z,56.4
2018-06-18T02:17:05.124Z,56.5
2018-06-18T02:22:04.197Z,56.5
2018-06-18T02:27:04.854Z,56.7
2018-06-18T02:32:04.998Z,56.7
2018-06-18T02:37:04.346Z,56.6
2018-06-18T02:42:04.824Z,56.7
2018-06-18T02:47:12.308Z,56.7
2018-06-18T02:52:04.525Z,56.8
2018-06-18T02:57:04.571Z,56.7
2018-06-18T03:02:24.516Z,56.6
2018-06-18T03:07:04.884Z,56.7
2018-06-18T03:12:04.324Z,56.7
2018-06-18T03:17:23.405Z,56.8
2018-06-18T03:22:04.530Z,56.8
2018-06-18T03:27:05.081Z,56.8
2018-06-18T03:32:23.929Z,56.7
2018-06-18T03:37:05.303Z,56.7
2018-06-18T03:42:04.926Z,56.6
2018-06-18T03:47:21.489Z,56.6
2018-06-18T03:52:04.113Z,56.7
2018-06-18T03:57:04.661Z,56.8
2018-06-18T04:02:21.806Z,56.9
2018-06-18T04:07:04.879Z,56.8
2018-06-18T04:12:04.357Z,56.7
2018-06-18T04:17:18.612Z,56.6
2018-06-18T04:22:04.869Z,56.6
2018-06-18T04:27:04.901Z,55.7
2018-06-18T04:32:22.509Z,55.9
2018-06-18T04:37:04.669Z,55.9
2018-06-18T04:42:04.326Z,56.1
2018-06-18T04:47:21.802Z,56.0
2018-06-18T04:52:04.808Z,56.1
2018-06-18T04:57:04.502Z,56.0
2018-06-18T05:02:21.721Z,56.0
2018-06-18T05:07:05.026Z,56.0
2018-06-18T05:12:04.488Z,55.8
2018-06-18T05:17:21.619Z,55.9
2018-06-18T05:22:04.772Z,55.8
2018-06-18T05:27:04.439Z,55.8
2018-06-18T05:32:22.653Z,56.0
2018-06-18T05:37:05.327Z,55.8
2018-06-18T05:42:05.228Z,55.8
2018-06-18T05:47:21.844Z,55.6
2018-06-18T05:52:04.893Z,55.2
2018-06-18T05:57:04.699Z,54.9
2018-06-18T06:02:20.922Z,54.9
2018-06-18T06:07:04.610Z,54.8
2018-06-18T06:12:04.317Z,54.8
2018-06-18T06:17:22.378Z,55.0
2018-06-18T06:22:04.648Z,55.5
2018-06-18T06:27:04.464Z,55.7
2018-06-18T06:32:22.856Z,55.5
2018-06-18T06:37:05.457Z,54.9
2018-06-18T06:42:04.374Z,55.0
2018-06-18T06:47:23.107Z,55.4
2018-06-18T06:52:04.430Z,55.5
2018-06-18T06:57:04.190Z,55.7
2018-06-18T07:02:22.434Z,55.5
2018-06-18T07:07:04.792Z,55.2
2018-06-18T07:12:04.612Z,55.2
2018-06-18T07:17:23.342Z,55.6
2018-06-18T07:22:04.319Z,55.6
2018-06-18T07:27:04.785Z,55.4
2018-06-18T07:32:22.809Z,55.6
2018-06-18T07:37:04.767Z,55.6
2018-06-18T07:42:04.661Z,55.6
2018-06-18T07:47:22.874Z,55.4
2018-06-18T07:52:04.905Z,55.2
2018-06-18T07:57:04.746Z,55.4
2018-06-18T08:02:20.064Z,55.5
2018-06-18T08:07:04.898Z,54.8
2018-06-18T08:12:04.806Z,54.8
2018-06-18T08:17:23.987Z,55.6
2018-06-18T08:22:04.958Z,55.3
2018-06-18T08:27:05.137Z,54.3
2018-06-18T08:32:22.965Z,54.8
2018-06-18T08:37:04.660Z,54.8
2018-06-18T08:42:04.539Z,55.0
2018-06-18T08:47:21.808Z,55.1
2018-06-18T08:52:04.383Z,55.0
2018-06-18T08:57:05.127Z,55.5
2018-06-18T09:02:22.734Z,55.1
2018-06-18T09:07:04.852Z,54.6
2018-06-18T09:12:04.544Z,55.1
2018-06-18T09:17:24.552Z,55.5
2018-06-18T09:22:04.857Z,54.9
2018-06-18T09:27:04.796Z,54.9
2018-06-18T09:32:22.537Z,55.1
2018-06-18T09:37:04.949Z,54.9
2018-06-18T09:42:04.550Z,54.7
2018-06-18T09:47:20.746Z,55.3
2018-06-18T09:52:04.148Z,55.3
2018-06-18T09:57:04.821Z,55.1
2018-06-18T10:02:24.060Z,54.9
2018-06-18T10:07:04.866Z,54.8
2018-06-18T10:12:04.795Z,54.8
2018-06-18T10:17:26.545Z,54.1
2018-06-18T10:22:05.056Z,54.1
2018-06-18T10:27:05.053Z,54.0
2018-06-18T10:32:24.572Z,54.7
2018-06-18T10:37:04.827Z,55.3
2018-06-18T10:42:04.370Z,55.3
2018-06-18T10:47:24.062Z,55.3
2018-06-18T10:52:04.407Z,54.8
2018-06-18T10:57:04.569Z,54.8
2018-06-18T11:02:21.417Z,54.9
2018-06-18T11:07:04.313Z,54.5
2018-06-18T11:12:04.874Z,55.3
2018-06-18T11:17:28.322Z,55.5
2018-06-18T11:22:04.500Z,55.1
2018-06-18T11:27:04.686Z,55.1
2018-06-18T11:32:28.549Z,54.8
2018-06-18T11:37:04.641Z,54.4
2018-06-18T11:42:04.833Z,54.9
2018-06-18T11:47:24.849Z,54.6
2018-06-18T11:52:04.522Z,54.8
2018-06-18T11:57:04.591Z,54.5
2018-06-18T12:02:04.715Z,55.2
2018-06-18T12:07:04.428Z,54.6
2018-06-18T12:12:05.157Z,54.6
2018-06-18T12:17:24.760Z,55.1
2018-06-18T12:22:04.445Z,53.9
2018-06-18T12:27:05.255Z,54.5
2018-06-18T12:32:24.192Z,54.5
2018-06-18T12:37:04.226Z,53.7
2018-06-18T12:42:07.276Z,52.7
2018-06-18T12:47:23.827Z,54.3
2018-06-18T12:52:04.318Z,55.0
2018-06-18T12:57:05.138Z,54.4
2018-06-18T13:02:22.060Z,54.3
2018-06-18T13:07:04.776Z,54.5
2018-06-18T13:12:04.559Z,54.3
2018-06-18T13:17:21.465Z,54.1
2018-06-18T13:22:04.533Z,54.2
2018-06-18T13:27:04.287Z,54.2
2018-06-18T13:32:20.729Z,54.0
2018-06-18T13:37:04.820Z,54.0
2018-06-18T13:42:04.815Z,54.4
2018-06-18T13:47:22.093Z,54.1
2018-06-18T13:52:04.395Z,53.9
2018-06-18T13:57:04.571Z,54.8
2018-06-18T14:02:20.019Z,54.5
2018-06-18T14:07:05.185Z,54.3
2018-06-18T14:12:05.204Z,53.6
2018-06-18T14:17:21.605Z,54.4
2018-06-18T14:22:04.214Z,54.4
2018-06-18T14:27:04.763Z,54.3
2018-06-18T14:32:19.785Z,53.0
2018-06-18T14:37:05.073Z,54.0
2018-06-18T14:42:04.829Z,53.5
2018-06-18T14:47:24.317Z,53.1
2018-06-18T14:52:04.395Z,53.1
2018-06-18T14:57:05.107Z,49.3
2018-06-18T15:02:21.230Z,45.8
2018-06-18T15:07:04.872Z,43.3
2018-06-18T15:12:04.324Z,45.7
2018-06-18T15:17:19.223Z,49.2
2018-06-18T15:22:04.381Z,50.3
2018-06-18T15:27:04.887Z,43.5
2018-06-18T15:32:18.933Z,39.7
2018-06-18T15:37:04.717Z,42.3
2018-06-18T15:42:04.502Z,46.3
2018-06-18T15:47:19.995Z,49.3
2018-06-18T15:52:04.247Z,51.6
2018-06-18T15:57:05.438Z,52.9
2018-06-18T16:02:18.189Z,53.7
2018-06-18T16:07:05.077Z,54.2
2018-06-18T16:12:04.665Z,54.2
2018-06-18T16:17:18.266Z,54.3
2018-06-18T16:22:04.961Z,54.0
2018-06-18T16:27:04.755Z,53.7
2018-06-18T16:32:16.431Z,53.7
2018-06-18T16:37:04.497Z,53.8
2018-06-18T16:42:04.750Z,49.9
2018-06-18T16:47:15.583Z,44.7
2018-06-18T16:52:04.895Z,44.7
2018-06-18T16:57:04.249Z,44.8
2018-06-18T17:02:17.228Z,47.0
2018-06-18T17:07:05.329Z,48.9
2018-06-18T17:12:04.642Z,50.1
2018-06-18T17:17:16.819Z,51.2
2018-06-18T17:22:04.953Z,50.9
2018-06-18T17:27:05.158Z,47.4
2018-06-18T17:32:12.423Z,47.3
2018-06-18T17:37:05.030Z,43.5
2018-06-18T17:42:05.188Z,39.7
2018-06-18T17:47:12.724Z,39.0
2018-06-18T17:52:04.278Z,38.6
2018-06-18T17:57:05.175Z,39.0
2018-06-18T18:02:10.025Z,39.7
2018-06-18T18:07:04.236Z,40.0
2018-06-18T18:12:05.183Z,40.5
2018-06-18T18:17:18.372Z,46.1
2018-06-18T18:22:04.494Z,46.0
2018-06-18T18:27:04.486Z,49.0
2018-06-18T18:32:18.508Z,46.4
2018-06-18T18:37:04.644Z,47.2
2018-06-18T18:42:04.230Z,50.0
2018-06-18T18:47:18.341Z,51.9
2018-06-18T18:52:04.557Z,51.9
2018-06-18T18:57:05.193Z,52.4
2018-06-18T19:02:18.872Z,52.7
2018-06-18T19:07:04.610Z,53.1
2018-06-18T19:12:05.178Z,53.0
2018-06-18T19:17:19.238Z,53.1
2018-06-18T19:22:04.825Z,53.2
2018-06-18T19:27:04.435Z,53.3
2018-06-18T19:32:18.696Z,53.4
2018-06-18T19:37:04.519Z,53.5
2018-06-18T19:42:05.148Z,53.7
2018-06-18T19:47:16.344Z,53.6
2018-06-18T19:52:04.993Z,53.7
2018-06-18T19:57:05.085Z,53.7
2018-06-18T20:02:21.528Z,53.8
2018-06-18T20:07:04.911Z,53.9
2018-06-18T20:12:04.874Z,53.9
2018-06-18T20:17:11.872Z,54.0
2018-06-18T20:22:04.533Z,54.0
2018-06-18T20:27:05.252Z,54.0
2018-06-18T20:32:09.129Z,54.2
2018-06-18T20:37:04.390Z,54.2
2018-06-18T20:42:04.372Z,54.3
2018-06-18T20:47:07.960Z,54.3
2018-06-18T20:52:04.653Z,54.4
2018-06-18T20:57:05.374Z,54.5
2018-06-18T21:02:04.807Z,54.5
2018-06-18T21:07:05.245Z,54.5
2018-06-18T21:12:04.903Z,54.4
2018-06-18T21:17:05.659Z,54.4
2018-06-18T21:22:04.502Z,54.5
2018-06-18T21:27:04.843Z,54.5
2018-06-18T21:32:05.070Z,54.5
2018-06-18T21:37:04.282Z,54.5
2018-06-18T21:42:05.361Z,54.4
2018-06-18T21:47:04.429Z,54.5
2018-06-18T21:52:04.727Z,54.5
2018-06-18T21:57:04.938Z,54.5
2018-06-18T22:02:04.493Z,54.5
2018-06-18T22:07:05.066Z,54.5
2018-06-18T22:12:05.198Z,54.4
2018-06-18T22:22:17.697Z,54.0
2018-06-18T22:27:17.508Z,54.4
2018-06-18T22:32:17.682Z,54.3
2018-06-18T22:37:16.643Z,54.4
2018-06-18T22:42:17.365Z,54.4
2018-06-18T22:47:17.123Z,54.4
2018-06-18T22:52:16.717Z,54.4
2018-06-18T22:57:17.325Z,54.3
2018-06-18T23:02:17.200Z,54.2
2018-06-18T23:07:17.173Z,54.2
2018-06-18T23:12:04.883Z,54.2
2018-06-18T23:17:04.948Z,54.3
2018-06-18T23:22:04.365Z,54.3
2018-06-18T23:27:04.305Z,54.1
2018-06-18T23:32:05.121Z,54.2
2018-06-18T23:37:05.110Z,54.2
2018-06-18T23:42:04.833Z,54.2
2018-06-18T23:47:04.699Z,54.2
2018-06-18T23:52:04.682Z,54.1
2018-06-18T23:57:04.633Z,54.1
